createdAt,value
2023-04-24T00:00:04.425Z,66.40
2023-04-24T00:01:03.914Z,65.20
2023-04-24T00:02:07.031Z,62.50
2023-04-24T00:04:07.136Z,60.50
2023-04-24T00:05:03.807Z,60.70
2023-04-24T00:06:06.958Z,60.40
2023-04-24T00:08:03.912Z,62.30
2023-04-24T00:09:06.060Z,61.90
2023-04-24T00:10:06.734Z,63.60
2023-04-24T00:11:04.105Z,62.30
2023-04-24T00:12:03.833Z,62.50
2023-04-24T00:13:04.329Z,64.50
2023-04-24T00:14:03.849Z,63.20
2023-04-24T00:15:04.364Z,62.90
2023-04-24T00:16:09.020Z,62.00
2023-04-24T00:18:04.295Z,61.90
2023-04-24T00:19:04.040Z,61.60
2023-04-24T00:20:11.161Z,59.80
2023-04-24T00:22:06.022Z,61.60
2023-04-24T00:24:06.569Z,59.60
2023-04-24T00:25:06.528Z,59.60
2023-04-24T00:26:06.462Z,59.50
2023-04-24T00:28:04.398Z,59.70
2023-04-24T00:29:03.967Z,59.60
2023-04-24T00:30:06.052Z,60.10
2023-04-24T00:31:04.360Z,60.20
2023-04-24T00:32:06.423Z,60.20
2023-04-24T00:34:06.977Z,63.90
2023-04-24T00:36:03.864Z,60.40
2023-04-24T00:37:06.903Z,60.20
2023-04-24T00:38:06.748Z,60.40
2023-04-24T00:39:06.612Z,60.30
2023-04-24T00:41:04.357Z,60.40
2023-04-24T00:42:03.806Z,60.30
2023-04-24T00:43:10.470Z,60.20
2023-04-24T00:45:04.369Z,60.50
2023-04-24T00:46:06.495Z,63.80
2023-04-24T00:47:06.443Z,68.70
2023-04-24T00:49:04.329Z,65.20
2023-04-24T00:50:06.499Z,69.20
2023-04-24T00:52:06.800Z,65.50
2023-04-24T00:54:03.522Z,66.00
2023-04-24T00:55:04.004Z,63.40
2023-04-24T00:56:04.421Z,65.00
2023-04-24T00:57:03.830Z,65.60
2023-04-24T00:58:04.288Z,65.30
2023-04-24T00:59:06.220Z,62.90
2023-04-24T01:01:04.071Z,61.40
2023-04-24T01:02:03.440Z,61.20
2023-04-24T01:03:04.142Z,61.30
2023-04-24T01:04:03.994Z,61.60
2023-04-24T01:06:11.588Z,62.70
2023-04-24T01:08:06.359Z,61.20
2023-04-24T01:10:04.204Z,61.20
2023-04-24T01:11:03.601Z,61.30
2023-04-24T01:12:04.040Z,61.60
2023-04-24T01:13:03.546Z,61.70
2023-04-24T01:14:03.981Z,61.80
2023-04-24T01:15:06.912Z,61.80
2023-04-24T01:16:04.212Z,61.70
2023-04-24T01:17:11.348Z,61.80
2023-04-24T01:19:04.168Z,61.80
2023-04-24T01:20:06.195Z,61.90
2023-04-24T01:22:03.889Z,62.00
2023-04-24T01:23:04.408Z,61.80
2023-04-24T01:24:03.820Z,62.10
2023-04-24T01:25:04.327Z,62.00
2023-04-24T01:26:08.887Z,62.00
2023-04-24T01:27:04.287Z,62.10
2023-04-24T01:28:06.267Z,61.90
2023-04-24T01:30:03.971Z,64.70
2023-04-24T01:31:04.531Z,62.60
2023-04-24T01:32:09.076Z,63.80
2023-04-24T01:34:06.788Z,62.20
2023-04-24T01:35:06.774Z,62.20
2023-04-24T01:37:06.125Z,61.30
2023-04-24T01:39:06.442Z,61.40
2023-04-24T01:41:06.835Z,61.30
2023-04-24T01:42:06.692Z,61.20
2023-04-24T01:44:06.914Z,61.10
2023-04-24T01:45:06.743Z,61.10
2023-04-24T01:47:04.555Z,61.00
2023-04-24T01:48:06.635Z,60.90
2023-04-24T01:49:06.514Z,60.80
2023-04-24T01:50:06.332Z,60.90
2023-04-24T01:51:06.244Z,60.80
2023-04-24T01:53:04.006Z,60.70
2023-04-24T01:54:07.061Z,60.90
2023-04-24T01:55:06.907Z,61.00
2023-04-24T01:56:06.751Z,60.90
2023-04-24T01:58:06.057Z,60.60
2023-04-24T02:00:03.920Z,60.50
2023-04-24T02:01:06.860Z,60.50
2023-04-24T02:02:12.016Z,60.60
2023-04-24T02:05:06.085Z,61.20
2023-04-24T02:06:06.941Z,61.20
2023-04-24T02:07:06.796Z,61.10
2023-04-24T02:08:06.621Z,61.20
2023-04-24T02:09:08.984Z,61.10
2023-04-24T02:10:04.271Z,61.10
2023-04-24T02:11:03.689Z,61.10
2023-04-24T02:12:04.169Z,61.20
2023-04-24T02:14:04.184Z,61.10
2023-04-24T02:15:06.200Z,61.10
2023-04-24T02:16:06.190Z,61.20
2023-04-24T02:18:04.124Z,61.10
2023-04-24T02:20:06.488Z,61.00
2023-04-24T02:21:08.871Z,61.00
2023-04-24T02:23:03.632Z,61.00
2023-04-24T02:24:04.059Z,60.70
2023-04-24T02:26:04.190Z,60.90
2023-04-24T02:27:06.164Z,60.90
2023-04-24T02:29:06.403Z,61.10
2023-04-24T02:30:06.238Z,61.10
2023-04-24T02:32:04.108Z,61.10
2023-04-24T02:33:03.587Z,60.70
2023-04-24T02:34:04.097Z,60.80
2023-04-24T02:35:03.490Z,61.20
2023-04-24T02:36:03.896Z,61.30
2023-04-24T02:37:04.374Z,61.00
2023-04-24T02:38:06.342Z,60.90
2023-04-24T02:39:08.643Z,61.00
2023-04-24T02:40:03.873Z,61.00
2023-04-24T02:41:06.859Z,61.00
2023-04-24T02:43:03.673Z,61.00
2023-04-24T02:44:04.136Z,61.00
2023-04-24T02:45:06.098Z,61.10
2023-04-24T02:46:07.150Z,61.00
2023-04-24T02:48:04.016Z,61.10
2023-04-24T02:49:03.512Z,61.00
2023-04-24T02:50:11.613Z,61.00
2023-04-24T02:53:06.793Z,61.10
2023-04-24T02:54:14.186Z,61.10
2023-04-24T02:55:06.065Z,61.10
2023-04-24T02:56:04.380Z,61.10
2023-04-24T02:57:06.447Z,61.20
2023-04-24T02:58:03.840Z,61.20
2023-04-24T02:59:06.883Z,61.20
2023-04-24T03:00:06.755Z,61.20
2023-04-24T03:01:06.745Z,60.80
2023-04-24T03:03:06.415Z,61.30
2023-04-24T03:05:03.650Z,61.40
2023-04-24T03:06:04.180Z,61.20
2023-04-24T03:08:06.710Z,61.10
2023-04-24T03:09:06.602Z,61.60
2023-04-24T03:11:04.447Z,60.90
2023-04-24T03:13:06.016Z,61.40
2023-04-24T03:14:04.332Z,61.40
2023-04-24T03:15:06.318Z,61.30
2023-04-24T03:16:03.626Z,61.40
2023-04-24T03:17:03.802Z,61.30
2023-04-24T03:18:12.004Z,61.50
2023-04-24T03:20:03.715Z,61.20
2023-04-24T03:21:09.284Z,61.20
2023-04-24T03:24:04.194Z,61.20
2023-04-24T03:25:03.592Z,61.20
2023-04-24T03:26:04.053Z,61.30
2023-04-24T03:27:06.021Z,60.90
2023-04-24T03:28:04.360Z,60.90
2023-04-24T03:29:03.887Z,60.90
2023-04-24T03:30:04.328Z,61.10
2023-04-24T03:31:06.349Z,61.10
2023-04-24T03:32:06.280Z,61.10
2023-04-24T03:33:06.124Z,61.20
2023-04-24T03:35:06.383Z,61.20
2023-04-24T03:36:06.214Z,61.40
2023-04-24T03:38:11.581Z,61.40
2023-04-24T03:40:04.364Z,61.60
2023-04-24T03:41:06.381Z,61.50
2023-04-24T03:43:04.260Z,61.60
2023-04-24T03:44:03.716Z,61.60
2023-04-24T03:45:04.211Z,61.60
2023-04-24T03:47:04.274Z,61.50
2023-04-24T03:48:04.143Z,61.60
2023-04-24T03:50:04.403Z,61.50
2023-04-24T03:51:06.438Z,60.80
2023-04-24T03:53:06.818Z,60.80
2023-04-24T03:55:03.557Z,60.70
2023-04-24T03:56:06.525Z,61.10
2023-04-24T03:57:06.341Z,61.10
2023-04-24T03:59:04.131Z,61.10
2023-04-24T04:00:06.157Z,61.30
2023-04-24T04:02:04.010Z,61.20
2023-04-24T04:03:04.052Z,61.20
2023-04-24T04:04:03.883Z,61.20
2023-04-24T04:05:03.698Z,61.30
2023-04-24T04:06:06.985Z,61.20
2023-04-24T04:07:04.322Z,61.20
2023-04-24T04:08:03.764Z,61.30
2023-04-24T04:09:06.764Z,60.60
2023-04-24T04:11:05.725Z,60.60
2023-04-24T04:12:06.739Z,60.50
2023-04-24T04:14:06.134Z,60.40
2023-04-24T04:15:04.475Z,60.50
2023-04-24T04:17:06.127Z,59.40
2023-04-24T04:18:04.502Z,59.30
2023-04-24T04:19:06.625Z,59.00
2023-04-24T04:21:04.492Z,59.40
2023-04-24T04:22:03.925Z,59.40
2023-04-24T04:23:04.414Z,60.80
2023-04-24T04:24:06.286Z,59.30
2023-04-24T04:25:08.970Z,60.60
2023-04-24T04:26:09.467Z,60.00
2023-04-24T04:27:03.688Z,59.90
2023-04-24T04:28:06.610Z,60.80
2023-04-24T04:29:03.901Z,60.00
2023-04-24T04:30:06.954Z,59.60
2023-04-24T04:31:04.333Z,59.50
2023-04-24T04:32:06.546Z,59.80
2023-04-24T04:35:09.063Z,59.70
2023-04-24T04:37:06.967Z,59.60
2023-04-24T04:38:09.447Z,59.60
2023-04-24T04:40:04.330Z,59.60
2023-04-24T04:41:06.294Z,59.70
2023-04-24T04:43:04.087Z,59.80
2023-04-24T04:44:06.497Z,59.30
2023-04-24T04:46:07.150Z,59.20
2023-04-24T04:47:06.142Z,59.20
2023-04-24T04:48:06.032Z,59.40
2023-04-24T04:49:06.890Z,59.30
2023-04-24T04:51:03.791Z,59.30
2023-04-24T04:52:04.326Z,59.40
2023-04-24T04:54:06.896Z,59.70
2023-04-24T04:56:03.584Z,59.70
2023-04-24T04:57:04.748Z,59.70
2023-04-24T04:58:09.307Z,59.80
2023-04-24T04:59:06.194Z,59.70
2023-04-24T05:01:06.542Z,59.60
2023-04-24T05:02:04.016Z,59.70
2023-04-24T05:03:21.053Z,59.90
2023-04-24T05:05:09.535Z,59.60
2023-04-24T05:06:03.923Z,59.60
2023-04-24T05:07:04.407Z,59.60
2023-04-24T05:08:05.648Z,59.50
2023-04-24T05:09:04.273Z,59.60
2023-04-24T05:10:06.343Z,59.70
2023-04-24T05:11:06.177Z,59.60
2023-04-24T05:12:06.039Z,59.60
2023-04-24T05:14:09.102Z,59.60
2023-04-24T05:16:04.077Z,59.60
2023-04-24T05:17:15.220Z,59.70
2023-04-24T05:19:04.246Z,59.70
2023-04-24T05:20:04.361Z,59.60
2023-04-24T05:21:06.443Z,59.70
2023-04-24T05:23:04.253Z,59.70
2023-04-24T05:24:08.776Z,59.70
2023-04-24T05:26:11.619Z,59.70
2023-04-24T05:28:03.777Z,59.60
2023-04-24T05:29:06.755Z,59.50
2023-04-24T05:30:06.628Z,59.50
2023-04-24T05:31:04.146Z,59.50
2023-04-24T05:32:06.175Z,59.50
2023-04-24T05:34:04.028Z,59.80
2023-04-24T05:35:03.446Z,59.40
2023-04-24T05:36:03.911Z,59.40
2023-04-24T05:37:06.883Z,59.20
2023-04-24T05:39:03.770Z,59.20
2023-04-24T05:40:04.238Z,59.70
2023-04-24T05:42:04.173Z,59.70
2023-04-24T05:43:06.459Z,59.10
2023-04-24T05:45:06.872Z,59.00
2023-04-24T05:46:04.383Z,59.00
2023-04-24T05:47:03.581Z,59.10
2023-04-24T05:48:04.346Z,59.00
2023-04-24T05:49:06.309Z,59.20
2023-04-24T05:50:06.152Z,59.20
2023-04-24T05:52:08.708Z,59.20
2023-04-24T05:55:06.834Z,59.30
2023-04-24T05:56:06.831Z,59.30
2023-04-24T05:57:07.054Z,59.20
2023-04-24T05:58:04.347Z,59.20
2023-04-24T05:59:06.621Z,59.30
2023-04-24T06:01:03.713Z,59.30
2023-04-24T06:02:03.851Z,59.40
2023-04-24T06:03:05.065Z,59.40
2023-04-24T06:04:03.789Z,59.40
2023-04-24T06:05:04.596Z,58.50
2023-04-24T06:06:04.176Z,59.20
2023-04-24T06:08:06.684Z,58.90
2023-04-24T06:10:03.503Z,58.70
2023-04-24T06:11:05.266Z,58.60
2023-04-24T06:12:04.102Z,58.50
2023-04-24T06:13:03.632Z,58.60
2023-04-24T06:14:04.153Z,58.40
2023-04-24T06:15:03.667Z,58.20
2023-04-24T06:16:04.246Z,57.80
2023-04-24T06:17:06.314Z,57.40
2023-04-24T06:18:03.835Z,57.40
2023-04-24T06:19:06.868Z,57.20
2023-04-24T06:21:03.822Z,57.10
2023-04-24T06:22:04.677Z,57.30
2023-04-24T06:23:06.801Z,56.70
2023-04-24T06:26:06.715Z,56.20
2023-04-24T06:27:06.635Z,56.10
2023-04-24T06:28:06.572Z,56.00
2023-04-24T06:29:06.419Z,56.10
2023-04-24T06:31:04.347Z,56.20
2023-04-24T06:32:03.833Z,56.60
2023-04-24T06:33:21.181Z,56.00
2023-04-24T06:34:04.293Z,56.00
2023-04-24T06:35:03.688Z,55.90
2023-04-24T06:36:06.819Z,56.20
2023-04-24T06:37:06.746Z,56.20
2023-04-24T06:38:06.658Z,55.80
2023-04-24T06:40:03.578Z,55.80
2023-04-24T06:41:04.040Z,55.90
2023-04-24T06:42:03.504Z,56.00
2023-04-24T06:43:03.982Z,55.70
2023-04-24T06:44:07.022Z,55.50
2023-04-24T06:45:06.963Z,55.30
2023-04-24T06:47:03.992Z,54.60
2023-04-24T06:48:03.495Z,54.70
2023-04-24T06:49:03.963Z,54.10
2023-04-24T06:50:03.499Z,53.90
2023-04-24T06:51:03.941Z,53.70
2023-04-24T06:52:09.474Z,53.60
2023-04-24T06:53:06.361Z,53.00
2023-04-24T06:55:04.209Z,53.10
2023-04-24T06:57:04.346Z,53.40
2023-04-24T06:59:06.984Z,53.30
2023-04-24T07:00:04.424Z,53.30
2023-04-24T07:03:06.971Z,53.20
2023-04-24T07:04:07.428Z,52.90
2023-04-24T07:06:04.385Z,53.30
2023-04-24T07:07:06.412Z,53.20
2023-04-24T07:09:04.415Z,53.40
2023-04-24T07:11:04.424Z,54.10
2023-04-24T07:12:09.071Z,53.30
2023-04-24T07:14:09.409Z,53.80
2023-04-24T07:15:06.465Z,53.70
2023-04-24T07:16:03.956Z,53.70
2023-04-24T07:17:04.405Z,53.70
2023-04-24T07:18:05.737Z,53.60
2023-04-24T07:19:06.187Z,53.00
2023-04-24T07:21:03.877Z,52.80
2023-04-24T07:22:04.279Z,52.70
2023-04-24T07:23:03.683Z,52.50
2023-04-24T07:24:04.161Z,52.50
2023-04-24T07:25:06.181Z,52.40
2023-04-24T07:26:06.349Z,52.10
2023-04-24T07:28:04.236Z,52.00
2023-04-24T07:29:03.698Z,52.60
2023-04-24T07:30:04.107Z,52.20
2023-04-24T07:31:03.574Z,52.40
2023-04-24T07:32:06.947Z,51.00
2023-04-24T07:33:06.992Z,50.50
2023-04-24T07:34:06.077Z,50.70
2023-04-24T07:35:06.940Z,50.70
2023-04-24T07:36:06.991Z,50.60
2023-04-24T07:37:04.388Z,50.90
2023-04-24T07:38:06.438Z,51.90
2023-04-24T07:39:06.404Z,52.10
2023-04-24T07:41:04.372Z,52.40
2023-04-24T07:42:06.411Z,51.90
2023-04-24T07:44:06.643Z,51.40
2023-04-24T07:45:03.940Z,51.60
2023-04-24T07:46:06.079Z,51.60
2023-04-24T07:47:06.588Z,50.10
2023-04-24T07:48:09.148Z,50.40
2023-04-24T07:49:14.286Z,50.40
2023-04-24T07:51:04.204Z,51.00
2023-04-24T07:53:04.283Z,50.70
2023-04-24T07:54:03.709Z,50.90
2023-04-24T07:55:06.703Z,50.30
2023-04-24T07:56:06.590Z,50.40
2023-04-24T07:58:04.303Z,50.10
2023-04-24T07:59:03.849Z,50.30
2023-04-24T08:00:04.359Z,49.80
2023-04-24T08:02:06.853Z,50.20
2023-04-24T08:03:06.878Z,50.10
2023-04-24T08:05:04.195Z,50.00
2023-04-24T08:06:03.896Z,50.30
2023-04-24T08:07:04.467Z,50.10
2023-04-24T08:08:14.688Z,50.00
2023-04-24T08:09:04.064Z,49.70
2023-04-24T08:11:04.036Z,49.00
2023-04-24T08:12:06.138Z,48.60
2023-04-24T08:14:04.076Z,48.50
2023-04-24T08:15:03.440Z,48.60
2023-04-24T08:16:04.118Z,48.90
2023-04-24T08:17:04.017Z,48.60
2023-04-24T08:18:06.165Z,48.50
2023-04-24T08:19:04.012Z,48.20
2023-04-24T08:20:03.660Z,48.50
2023-04-24T08:21:04.246Z,48.70
2023-04-24T08:22:06.333Z,48.40
2023-04-24T08:24:04.401Z,48.70
2023-04-24T08:26:04.362Z,47.80
2023-04-24T08:27:03.810Z,47.80
2023-04-24T08:28:04.519Z,47.60
2023-04-24T08:29:06.733Z,48.30
2023-04-24T08:31:06.215Z,47.90
2023-04-24T08:33:04.390Z,47.80
2023-04-24T08:34:03.875Z,47.80
2023-04-24T08:35:06.947Z,48.60
2023-04-24T08:36:04.362Z,48.60
2023-04-24T08:37:08.913Z,48.20
2023-04-24T08:39:04.108Z,48.30
2023-04-24T08:40:06.670Z,47.20
2023-04-24T08:42:03.733Z,46.50
2023-04-24T08:43:04.228Z,46.10
2023-04-24T08:44:10.602Z,44.80
2023-04-24T08:46:11.037Z,44.20
2023-04-24T08:47:06.705Z,44.70
2023-04-24T08:49:04.223Z,45.10
2023-04-24T08:50:06.183Z,44.10
2023-04-24T08:52:04.039Z,43.40
2023-04-24T08:53:05.543Z,43.80
2023-04-24T08:54:06.687Z,43.90
2023-04-24T08:55:04.035Z,44.60
2023-04-24T08:56:03.517Z,43.60
2023-04-24T08:57:04.175Z,43.40
2023-04-24T08:58:03.622Z,42.30
2023-04-24T08:59:04.085Z,41.40
2023-04-24T09:00:03.605Z,41.30
2023-04-24T09:01:04.162Z,41.00
2023-04-24T09:02:08.876Z,40.70
2023-04-24T09:04:04.277Z,40.80
2023-04-24T09:05:06.386Z,40.60
2023-04-24T09:06:08.834Z,39.50
2023-04-24T09:08:03.989Z,38.70
2023-04-24T09:09:03.468Z,38.20
2023-04-24T09:10:06.435Z,37.30
2023-04-24T09:11:08.882Z,38.10
2023-04-24T09:12:04.231Z,38.30
2023-04-24T09:13:03.812Z,38.90
2023-04-24T09:14:04.392Z,39.10
2023-04-24T09:15:06.417Z,39.90
2023-04-24T09:16:06.399Z,39.30
2023-04-24T09:18:04.413Z,37.80
2023-04-24T09:20:09.556Z,38.00
2023-04-24T09:21:03.883Z,38.00
2023-04-24T09:22:04.348Z,38.10
2023-04-24T09:23:03.781Z,37.50
2023-04-24T09:24:09.436Z,37.80
2023-04-24T09:26:04.457Z,36.80
2023-04-24T09:27:03.948Z,36.80
2023-04-24T09:28:04.590Z,37.00
2023-04-24T09:31:04.322Z,39.50
2023-04-24T09:32:06.497Z,36.60
2023-04-24T09:34:08.558Z,36.40
2023-04-24T09:36:03.539Z,36.60
2023-04-24T09:37:11.680Z,37.90
2023-04-24T09:38:04.035Z,37.80
2023-04-24T09:39:03.554Z,37.80
2023-04-24T09:40:04.161Z,37.70
2023-04-24T09:41:06.201Z,36.70
2023-04-24T09:42:06.139Z,36.80
2023-04-24T09:43:06.045Z,36.00
2023-04-24T09:44:04.412Z,36.00
2023-04-24T09:45:15.316Z,35.90
2023-04-24T09:47:06.304Z,36.20
2023-04-24T09:49:06.738Z,35.70
2023-04-24T09:50:06.742Z,35.50
2023-04-24T09:51:04.200Z,35.50
2023-04-24T09:52:03.642Z,36.00
2023-04-24T09:53:05.832Z,35.80
2023-04-24T09:55:04.158Z,36.00
2023-04-24T09:57:04.213Z,36.30
2023-04-24T09:58:03.698Z,36.30
2023-04-24T09:59:04.162Z,36.70
2023-04-24T10:00:03.641Z,36.50
2023-04-24T10:01:04.361Z,36.90
2023-04-24T10:02:03.925Z,36.80
2023-04-24T10:04:04.437Z,36.50
2023-04-24T10:05:04.003Z,36.90
2023-04-24T10:06:06.192Z,37.10
2023-04-24T10:07:06.146Z,37.80
2023-04-24T10:08:06.068Z,38.20
2023-04-24T10:10:06.546Z,39.20
2023-04-24T10:11:06.469Z,38.50
2023-04-24T10:13:04.560Z,40.30
2023-04-24T10:14:06.700Z,39.20
2023-04-24T10:15:06.606Z,40.70
2023-04-24T10:16:04.126Z,39.90
2023-04-24T10:18:04.270Z,41.40
2023-04-24T10:19:06.352Z,38.60
2023-04-24T10:20:03.782Z,39.00
2023-04-24T10:21:06.834Z,35.70
2023-04-24T10:23:04.240Z,37.40
2023-04-24T10:24:06.275Z,35.10
2023-04-24T10:26:04.101Z,35.10
2023-04-24T10:28:10.592Z,34.50
2023-04-24T10:29:08.531Z,34.90
2023-04-24T10:31:06.505Z,35.30
2023-04-24T10:32:06.401Z,37.00
2023-04-24T10:33:03.828Z,35.90
2023-04-24T10:34:04.407Z,36.10
2023-04-24T10:35:06.590Z,34.70
2023-04-24T10:36:06.568Z,35.70
2023-04-24T10:37:03.970Z,34.60
2023-04-24T10:38:07.037Z,31.10
2023-04-24T10:39:07.032Z,28.70
2023-04-24T10:41:06.504Z,30.00
2023-04-24T10:43:06.927Z,30.20
2023-04-24T10:45:11.365Z,30.70
2023-04-24T10:47:09.355Z,29.40
2023-04-24T10:49:03.795Z,30.00
2023-04-24T10:50:04.252Z,30.00
2023-04-24T10:51:06.257Z,29.60
2023-04-24T10:52:03.708Z,29.50
2023-04-24T10:53:04.212Z,30.40
2023-04-24T10:54:06.228Z,30.00
2023-04-24T10:55:06.210Z,30.60
2023-04-24T10:57:04.076Z,30.20
2023-04-24T10:58:03.496Z,29.70
2023-04-24T10:59:09.001Z,32.10
2023-04-24T11:01:03.807Z,32.30
2023-04-24T11:02:11.962Z,32.50
2023-04-24T11:03:04.605Z,32.40
2023-04-24T11:04:05.304Z,34.60
2023-04-24T11:05:04.396Z,32.50
2023-04-24T11:06:03.936Z,33.20
2023-04-24T11:07:06.085Z,36.00
2023-04-24T11:09:04.129Z,33.00
2023-04-24T11:10:06.228Z,32.40
2023-04-24T11:12:04.047Z,31.90
2023-04-24T11:13:05.981Z,30.70
2023-04-24T11:14:06.915Z,30.80
2023-04-24T11:16:07.048Z,30.70
2023-04-24T11:18:06.762Z,31.40
2023-04-24T11:20:27.231Z,32.70
2023-04-24T11:22:04.434Z,32.40
2023-04-24T11:23:06.497Z,33.00
2023-04-24T11:24:08.893Z,33.20
2023-04-24T11:27:06.890Z,35.60
2023-04-24T11:30:05.049Z,33.30
2023-04-24T11:32:04.280Z,32.30
2023-04-24T11:34:04.262Z,31.60
2023-04-24T11:36:04.164Z,31.30
2023-04-24T11:37:06.139Z,30.60
2023-04-24T11:38:25.084Z,30.70
2023-04-24T11:40:04.369Z,31.00
2023-04-24T11:41:06.555Z,31.90
2023-04-24T11:43:08.389Z,31.90
2023-04-24T11:44:06.487Z,32.20
2023-04-24T11:46:07.041Z,31.30
2023-04-24T11:47:03.869Z,31.70
2023-04-24T11:48:04.762Z,31.20
2023-04-24T11:49:04.380Z,30.60
2023-04-24T11:51:04.332Z,30.90
2023-04-24T11:52:06.409Z,30.70
2023-04-24T11:53:08.922Z,31.30
2023-04-24T11:55:03.595Z,30.80
2023-04-24T11:56:06.659Z,32.10
2023-04-24T11:57:06.605Z,32.60
2023-04-24T11:58:04.113Z,32.70
2023-04-24T11:59:03.572Z,32.90
2023-04-24T12:00:09.749Z,32.90
2023-04-24T12:02:09.608Z,31.70
2023-04-24T12:04:04.809Z,32.00
2023-04-24T12:06:03.699Z,32.50
2023-04-24T12:07:04.161Z,32.40
2023-04-24T12:08:03.604Z,32.30
2023-04-24T12:09:18.133Z,31.90
2023-04-24T12:11:06.670Z,31.10
2023-04-24T12:12:06.585Z,31.90
2023-04-24T12:13:04.209Z,32.30
2023-04-24T12:14:06.260Z,32.20
2023-04-24T12:16:04.441Z,29.10
2023-04-24T12:17:06.485Z,31.10
2023-04-24T12:19:06.170Z,31.70
2023-04-24T12:20:03.607Z,31.80
2023-04-24T12:21:04.090Z,31.10
2023-04-24T12:22:03.511Z,29.40
2023-04-24T12:23:03.999Z,32.00
2023-04-24T12:24:06.128Z,32.20
2023-04-24T12:25:03.544Z,30.70
2023-04-24T12:26:06.563Z,31.00
2023-04-24T12:27:06.505Z,32.60
2023-04-24T12:28:06.850Z,32.70
2023-04-24T12:29:04.464Z,31.80
2023-04-24T12:30:06.534Z,30.00
2023-04-24T12:31:06.572Z,30.50
2023-04-24T12:32:04.046Z,31.90
2023-04-24T12:33:06.214Z,32.30
2023-04-24T12:34:03.719Z,32.90
2023-04-24T12:35:04.297Z,33.10
2023-04-24T12:36:06.320Z,32.70
2023-04-24T12:37:06.224Z,32.90
2023-04-24T12:38:06.078Z,29.40
2023-04-24T12:39:03.477Z,28.70
2023-04-24T12:40:06.516Z,28.20
2023-04-24T12:42:04.451Z,31.20
2023-04-24T12:43:06.402Z,29.10
2023-04-24T12:45:06.741Z,30.20
2023-04-24T12:47:03.701Z,30.00
2023-04-24T12:48:06.708Z,29.80
2023-04-24T12:50:03.758Z,29.80
2023-04-24T12:51:06.963Z,30.60
2023-04-24T12:52:06.953Z,31.20
2023-04-24T12:53:06.902Z,33.00
2023-04-24T12:54:06.854Z,34.50
2023-04-24T12:56:03.588Z,32.20
2023-04-24T12:57:04.180Z,32.90
2023-04-24T12:58:03.644Z,34.20
2023-04-24T12:59:04.208Z,33.80
2023-04-24T13:00:06.549Z,33.90
2023-04-24T13:03:12.159Z,31.90
2023-04-24T13:04:09.323Z,30.10
2023-04-24T13:06:04.446Z,32.30
2023-04-24T13:08:04.505Z,31.80
2023-04-24T13:09:06.506Z,30.30
2023-04-24T13:10:06.641Z,30.60
2023-04-24T13:11:06.604Z,31.30
2023-04-24T13:13:04.360Z,31.50
2023-04-24T13:14:06.385Z,31.00
2023-04-24T13:15:06.475Z,30.60
2023-04-24T13:17:03.771Z,30.90
2023-04-24T13:18:04.325Z,31.70
2023-04-24T13:20:04.266Z,33.20
2023-04-24T13:21:03.954Z,33.00
2023-04-24T13:22:04.468Z,30.90
2023-04-24T13:23:06.564Z,30.80
2023-04-24T13:25:06.019Z,33.60
2023-04-24T13:26:04.329Z,33.90
2023-04-24T13:27:06.371Z,35.80
2023-04-24T13:29:06.701Z,34.60
2023-04-24T13:31:06.122Z,32.90
2023-04-24T13:32:03.540Z,33.10
2023-04-24T13:33:04.169Z,32.60
2023-04-24T13:34:03.693Z,32.90
2023-04-24T13:35:04.140Z,32.10
2023-04-24T13:36:03.540Z,32.10
2023-04-24T13:37:04.137Z,32.60
2023-04-24T13:38:09.850Z,33.70
2023-04-24T13:40:03.605Z,33.90
2023-04-24T13:41:04.121Z,34.10
2023-04-24T13:42:04.772Z,33.60
2023-04-24T13:43:03.918Z,33.40
2023-04-24T13:44:06.934Z,33.50
2023-04-24T13:45:24.550Z,32.50
2023-04-24T13:47:04.379Z,33.00
2023-04-24T13:49:04.452Z,30.50
2023-04-24T13:50:03.981Z,32.90
2023-04-24T13:51:06.096Z,31.90
2023-04-24T13:52:08.511Z,32.20
2023-04-24T13:53:08.902Z,33.50
2023-04-24T13:55:09.436Z,32.10
2023-04-24T13:56:03.812Z,32.80
2023-04-24T13:57:06.834Z,31.70
2023-04-24T13:59:03.808Z,30.90
2023-04-24T14:00:04.435Z,31.60
2023-04-24T14:01:03.984Z,32.50
2023-04-24T14:03:04.296Z,32.80
2023-04-24T14:04:04.507Z,33.40
2023-04-24T14:05:04.300Z,33.80
2023-04-24T14:06:03.852Z,34.00
2023-04-24T14:07:04.385Z,34.20
2023-04-24T14:08:03.926Z,34.00
2023-04-24T14:09:06.026Z,33.90
2023-04-24T14:10:04.525Z,33.60
2023-04-24T14:11:05.033Z,33.40
2023-04-24T14:13:06.626Z,33.20
2023-04-24T14:15:04.428Z,34.70
2023-04-24T14:16:03.881Z,33.60
2023-04-24T14:17:07.101Z,35.40
2023-04-24T14:19:03.898Z,34.60
2023-04-24T14:20:04.515Z,35.10
2023-04-24T14:21:04.037Z,35.40
2023-04-24T14:22:03.692Z,35.60
2023-04-24T14:23:04.143Z,34.80
2023-04-24T14:24:03.591Z,35.40
2023-04-24T14:25:04.171Z,35.70
2023-04-24T14:27:06.646Z,39.40
2023-04-24T14:28:06.589Z,39.40
2023-04-24T14:29:15.311Z,40.20
2023-04-24T14:31:03.717Z,39.90
2023-04-24T14:32:04.229Z,42.10
2023-04-24T14:33:06.653Z,43.20
2023-04-24T14:34:04.240Z,43.00
2023-04-24T14:36:09.517Z,44.30
2023-04-24T14:37:06.445Z,44.90
2023-04-24T14:38:06.334Z,44.40
2023-04-24T14:39:09.092Z,45.30
2023-04-24T14:42:06.830Z,46.70
2023-04-24T14:43:06.708Z,44.90
2023-04-24T14:44:06.660Z,46.50
2023-04-24T14:45:04.093Z,46.60
2023-04-24T14:46:03.534Z,45.30
2023-04-24T14:47:06.590Z,45.60
2023-04-24T14:49:03.563Z,44.90
2023-04-24T14:50:04.187Z,45.00
2023-04-24T14:51:03.701Z,45.30
2023-04-24T14:52:06.698Z,45.70
2023-04-24T14:53:04.223Z,45.90
2023-04-24T14:54:06.322Z,45.50
2023-04-24T14:55:06.222Z,46.20
2023-04-24T14:57:04.155Z,46.30
2023-04-24T14:58:06.103Z,46.90
2023-04-24T14:59:06.111Z,42.40
2023-04-24T15:00:08.549Z,44.20
2023-04-24T15:01:03.964Z,45.20
2023-04-24T15:02:16.748Z,46.50
2023-04-24T15:03:06.767Z,46.40
2023-04-24T15:05:04.330Z,47.80
2023-04-24T15:06:03.919Z,48.10
2023-04-24T15:07:04.444Z,48.30
2023-04-24T15:08:04.029Z,48.20
2023-04-24T15:09:03.573Z,48.90
2023-04-24T15:10:04.096Z,48.70
2023-04-24T15:12:06.719Z,49.10
2023-04-24T15:13:06.814Z,48.70
2023-04-24T15:14:04.143Z,49.00
2023-04-24T15:16:06.830Z,48.80
2023-04-24T15:17:06.975Z,48.60
2023-04-24T15:18:04.482Z,48.80
2023-04-24T15:19:04.064Z,48.80
2023-04-24T15:20:03.654Z,50.10
2023-04-24T15:21:04.248Z,49.90
2023-04-24T15:22:06.333Z,49.00
2023-04-24T15:23:06.257Z,46.40
2023-04-24T15:24:03.990Z,47.20
2023-04-24T15:25:06.141Z,46.80
2023-04-24T15:26:06.274Z,46.80
2023-04-24T15:27:06.156Z,46.10
2023-04-24T15:28:03.697Z,46.20
2023-04-24T15:29:06.735Z,45.80
2023-04-24T15:31:06.147Z,45.40
2023-04-24T15:33:06.781Z,45.00
2023-04-24T15:34:04.291Z,44.50
2023-04-24T15:35:10.299Z,44.10
2023-04-24T15:37:04.197Z,43.80
2023-04-24T15:38:06.311Z,44.50
2023-04-24T15:40:04.143Z,44.70
2023-04-24T15:41:06.216Z,39.90
2023-04-24T15:42:06.253Z,40.80
2023-04-24T15:44:04.227Z,40.50
2023-04-24T15:45:03.794Z,40.60
2023-04-24T15:46:04.503Z,41.30
2023-04-24T15:47:06.727Z,42.30
2023-04-24T15:48:06.833Z,41.80
2023-04-24T15:50:06.428Z,42.00
2023-04-24T15:51:08.929Z,41.90
2023-04-24T15:53:04.236Z,41.20
2023-04-24T15:54:03.930Z,42.20
2023-04-24T15:55:04.479Z,41.80
2023-04-24T15:58:04.040Z,40.70
2023-04-24T16:00:06.623Z,42.80
2023-04-24T16:01:06.602Z,42.80
2023-04-24T16:02:09.083Z,42.90
2023-04-24T16:04:04.631Z,42.10
2023-04-24T16:05:06.674Z,43.40
2023-04-24T16:07:03.629Z,39.30
2023-04-24T16:08:04.293Z,40.70
2023-04-24T16:09:04.239Z,41.70
2023-04-24T16:10:03.736Z,42.40
2023-04-24T16:11:06.751Z,41.30
2023-04-24T16:12:11.895Z,41.60
2023-04-24T16:15:06.129Z,41.00
2023-04-24T16:16:08.777Z,41.90
2023-04-24T16:19:03.545Z,43.00
2023-04-24T16:20:04.062Z,41.90
2023-04-24T16:21:06.149Z,43.10
2023-04-24T16:22:06.137Z,42.20
2023-04-24T16:23:08.637Z,42.20
2023-04-24T16:25:04.066Z,42.30
2023-04-24T16:26:03.676Z,42.40
2023-04-24T16:27:06.720Z,41.00
2023-04-24T16:29:03.693Z,40.10
2023-04-24T16:30:04.328Z,40.30
2023-04-24T16:32:04.548Z,41.00
2023-04-24T16:33:04.098Z,41.00
2023-04-24T16:34:03.690Z,40.10
2023-04-24T16:35:04.169Z,40.90
2023-04-24T16:36:04.702Z,41.90
2023-04-24T16:38:07.509Z,41.40
2023-04-24T16:39:06.456Z,41.90
2023-04-24T16:40:03.961Z,40.90
2023-04-24T16:41:06.144Z,42.30
2023-04-24T16:42:03.638Z,41.90
2023-04-24T16:43:04.158Z,43.80
2023-04-24T16:44:06.205Z,42.80